logo
Search for airport 
image banner adimage banner adimage banner ad
image banner ad

UAKK - Karaganda

Located in Karaganda, Kazakhstan

ICAO - UAKK, IATA - KGF

Data provided by Airmate  

General information

Coordinates: N49°40'18" E73°20'7"
Elevation is 1766 feet MSL.
Magnetic variation is 8° East
View others Airports in Karagandy

Operational data

Special qualification required
Current time UTC:
Current local time:
Weather
METAR: UAKK 141600Z 27006MPS 240V310 9999 -SHRA VCTS BKN050CB 20/14 Q1006 NOSIG RMK QFE708/0944
TAF: TAF UAKK 141103Z 1412/1512 02004MPS 9999 SCT030CB BKN100 TX27/1509Z TN16/1424Z TEMPO 1412/1415 VRB01MPS 5000 -TSRA BKN030CB TEMPO 1415/1424 VRB13MPS 3100 -TSRA SQ SCT011 BKN020CB BECMG 1500/1502 08005MPS TEMPO 1500/1503 VRB01MPS 5000 -SHRA BR SCT011 BKN020CB TEMPO 1503/1512 VRB13MPS 3100 -TSRA SQ BKN030CB
View NOTAMs / SUP AIP / TFR affecting this airport [VIEW]
Communications frequencies: [VIEW]

Runways:

RWY identifierQFULength (ft)Width (ft)SurfaceLDA (ft)
0558°11814197CONC11814
23238°11814197CONC11814

Airport contact information

Address: Karaganda Kazakhstan

Satellite view of UAKK